Time,TemperatureF,DewpointF,PressureIn,WindDirection,WindDirectionDegrees,WindSpeedMPH,WindSpeedGustMPH,Humidity,HourlyPrecipIn,Conditions,Clouds,dailyrainin,SoftwareType,DateUTC
2013-09-13 00:00:00,64.6,61.9,28.15,SSW,206,2.0,5.0,91,0.00,CLR,,0.00,WeatherDisplay:10.37,2013-09-13 04:00:00,
2013-09-13 00:10:00,64.8,62.4,28.15,SSW,199,3.0,5.0,92,0.00,CLR,,0.00,WeatherDisplay:10.37,2013-09-13 04:10:00,
2013-09-13 00:20:00,64.6,62.5,28.15,SSW,203,2.0,5.0,93,0.00,CLR,,0.00,WeatherDisplay:10.37,2013-09-13 04:20:00,
2013-09-13 00:30:00,64.6,62.2,28.12,SSW,209,2.0,5.0,92,0.00,CLR,,0.00,WeatherDisplay:10.37,2013-09-13 04:30:00,
2013-09-13 00:40:00,64.8,62.7,28.12,SW,221,2.0,4.0,93,0.00,CLR,,0.00,WeatherDisplay:10.37,2013-09-13 04:40:00,
2013-09-13 00:50:00,64.8,63.0,28.12,SW,227,3.0,4.0,94,0.00,CLR,,0.00,WeatherDisplay:10.37,2013-09-13 04:50:00,
2013-09-13 01:00:00,64.8,63.3,28.09,SSW,202,3.0,6.0,95,0.00,CLR,,0.00,WeatherDisplay:10.37,2013-09-13 05:00:00,
2013-09-13 01:10:00,64.8,63.3,28.09,SW,218,2.0,5.0,95,0.00,CLR,,0.00,WeatherDisplay:10.37,2013-09-13 05:10:00,
2013-09-13 01:20:00,64.9,63.8,28.09,SW,218,5.0,5.0,96,0.00,CLR,,0.00,WeatherDisplay:10.37,2013-09-13 05:20:00,
2013-09-13 01:30:00,64.9,64.1,28.09,SSW,207,0.0,5.0,97,0.00,CLR,,0.00,WeatherDisplay:10.37,2013-09-13 05:30:00,
2013-09-13 01:40:00,64.9,64.1,28.09,SW,214,3.0,5.0,97,0.00,CLR,,0.00,WeatherDisplay:10.37,2013-09-13 05:40:00,
2013-09-13 01:50:00,65.1,64.2,28.07,SSW,200,3.0,7.0,97,0.00,CLR,,0.00,WeatherDisplay:10.37,2013-09-13 05:50:00,
2013-09-13 02:00:00,65.1,65.1,28.07,SW,215,1.0,5.0,100,0.00,CLR,,0.00,WeatherDisplay:10.37,2013-09-13 06:00:00,
2013-09-13 02:10:00,65.1,65.1,28.07,SSW,205,2.0,4.0,100,0.00,CLR,,0.00,WeatherDisplay:10.37,2013-09-13 06:10:00,
2013-09-13 02:20:00,65.1,65.1,28.07,SSW,212,2.0,6.0,100,0.00,CLR,,0.00,WeatherDisplay:10.37,2013-09-13 06:20:00,
2013-09-13 02:30:00,65.3,65.3,28.04,SSW,203,2.0,5.0,100,0.00,CLR,,0.00,WeatherDisplay:10.37,2013-09-13 06:30:00,
2013-09-13 02:40:00,65.3,65.3,28.04,SSW,198,5.0,7.0,100,0.00,CLR,,0.00,WeatherDisplay:10.37,2013-09-13 06:40:00,
2013-09-13 02:50:00,65.3,65.3,28.04,SW,214,2.0,7.0,100,0.00,CLR,,0.00,WeatherDisplay:10.37,2013-09-13 06:50:00,
2013-09-13 03:00:00,65.5,65.5,28.04,WSW,239,2.0,3.0,100,0.00,CLR,,0.00,WeatherDisplay:10.37,2013-09-13 07:00:00,
2013-09-13 03:10:00,65.3,65.3,28.04,WSW,247,1.0,3.0,100,0.00,CLR,,0.00,WeatherDisplay:10.37,2013-09-13 07:10:00,
2013-09-13 03:20:00,65.3,65.3,28.04,WSW,255,0.0,6.0,100,0.00,CLR,,0.00,WeatherDisplay:10.37,2013-09-13 07:20:00,
2013-09-13 03:30:00,64.9,64.9,28.07,SW,216,0.0,7.0,100,0.00,CLR,,0.00,WeatherDisplay:10.37,2013-09-13 07:30:00,
2013-09-13 03:40:00,64.9,64.9,28.07,WSW,258,0.0,0.0,100,0.00,CLR,,0.00,WeatherDisplay:10.37,2013-09-13 07:40:00,
2013-09-13 03:50:00,64.9,64.9,28.07,WSW,240,0.0,0.0,100,0.00,CLR,,0.00,WeatherDisplay:10.37,2013-09-13 07:50:00,
2013-09-13 04:00:00,64.8,64.8,28.07,WSW,249,0.0,3.0,100,0.00,CLR,,0.00,WeatherDisplay:10.37,2013-09-13 08:00:00,
2013-09-13 04:10:00,64.4,64.4,28.07,SSW,203,2.0,3.0,100,0.00,CLR,,0.00,WeatherDisplay:10.37,2013-09-13 08:10:00,
2013-09-13 04:20:00,64.2,64.2,28.04,SSW,201,2.0,5.0,100,0.00,CLR,,0.00,WeatherDisplay:10.37,2013-09-13 08:20:00,
2013-09-13 04:30:00,64.2,64.2,28.04,South,187,2.0,4.0,100,0.00,CLR,,0.00,WeatherDisplay:10.37,2013-09-13 08:30:00,
2013-09-13 04:40:00,64.2,64.2,28.04,SSW,197,1.0,2.0,100,0.00,CLR,,0.00,WeatherDisplay:10.37,2013-09-13 08:40:00,
2013-09-13 04:50:00,64.2,64.2,28.04,SSW,209,0.0,2.0,100,0.00,CLR,,0.00,WeatherDisplay:10.37,2013-09-13 08:50:00,
2013-09-13 05:00:00,64.2,64.2,28.07,WNW,289,2.0,2.0,100,0.00,CLR,,0.00,WeatherDisplay:10.37,2013-09-13 09:00:00,
2013-09-13 05:10:00,64.4,64.4,28.07,West,271,0.0,0.0,100,0.00,CLR,,0.00,WeatherDisplay:10.37,2013-09-13 09:10:00,
2013-09-13 05:20:00,64.2,64.2,28.07,SSW,193,0.0,0.0,100,0.00,CLR,,0.00,WeatherDisplay:10.37,2013-09-13 09:20:00,
2013-09-13 05:30:00,64.0,64.0,28.07,SW,231,0.0,0.0,100,0.00,CLR,,0.00,WeatherDisplay:10.37,2013-09-13 09:30:00,
2013-09-13 05:40:00,63.9,63.0,28.07,SW,224,0.0,0.0,97,0.00,CLR,,0.00,WeatherDisplay:10.37,2013-09-13 09:40:00,
2013-09-13 05:50:00,63.9,63.0,28.07,SW,216,2.0,3.0,97,0.00,CLR,,0.00,WeatherDisplay:10.37,2013-09-13 09:50:00,
2013-09-13 06:00:00,63.7,62.8,28.04,SSW,204,2.0,3.0,97,0.00,CLR,,0.00,WeatherDisplay:10.37,2013-09-13 10:00:00,
2013-09-13 06:10:00,63.5,62.6,28.04,SSW,208,1.0,3.0,97,0.00,CLR,,0.00,WeatherDisplay:10.37,2013-09-13 10:10:00,
2013-09-13 06:20:00,63.3,62.4,28.04,SW,236,0.0,2.0,97,0.00,CLR,,0.00,WeatherDisplay:10.37,2013-09-13 10:20:00,
2013-09-13 06:30:00,63.0,61.8,28.07,WSW,257,0.0,0.0,96,0.00,CLR,,0.00,WeatherDisplay:10.37,2013-09-13 10:30:00,
2013-09-13 06:40:00,62.8,61.6,28.07,West,270,0.0,0.0,96,0.00,CLR,,0.00,WeatherDisplay:10.37,2013-09-13 10:40:00,
2013-09-13 06:50:00,62.8,61.6,28.07,West,270,0.0,0.0,96,0.00,CLR,,0.00,WeatherDisplay:10.37,2013-09-13 10:50:00,
2013-09-13 07:00:00,62.6,61.4,28.07,West,263,0.0,1.0,96,0.00,CLR,,0.00,WeatherDisplay:10.37,2013-09-13 11:00:00,
2013-09-13 07:10:00,62.6,61.4,28.07,West,270,0.0,1.0,96,0.00,CLR,,0.00,WeatherDisplay:10.37,2013-09-13 11:10:00,
2013-09-13 07:20:00,62.4,61.3,28.07,WSW,255,0.0,2.0,96,0.00,CLR,,0.00,WeatherDisplay:10.37,2013-09-13 11:20:00,
2013-09-13 07:30:00,62.4,61.3,28.09,SSW,206,2.0,3.0,96,0.00,CLR,,0.00,WeatherDisplay:10.37,2013-09-13 11:30:00,
2013-09-13 07:40:00,62.4,61.6,28.09,SSW,207,3.0,4.0,97,0.00,CLR,,0.00,WeatherDisplay:10.37,2013-09-13 11:40:00,
2013-09-13 07:50:00,62.6,61.7,28.07,SSW,204,2.0,3.0,97,0.00,CLR,,0.00,WeatherDisplay:10.37,2013-09-13 11:50:00,
2013-09-13 08:00:00,62.6,61.7,28.07,SSW,207,2.0,3.0,97,0.00,CLR,,0.00,WeatherDisplay:10.37,2013-09-13 12:00:00,
2013-09-13 08:10:00,62.8,61.9,28.07,SSW,198,2.0,5.0,97,0.00,CLR,,0.00,WeatherDisplay:10.37,2013-09-13 12:10:00,
2013-09-13 08:20:00,63.1,63.1,28.04,SW,217,1.0,3.0,100,0.00,CLR,,0.00,WeatherDisplay:10.37,2013-09-13 12:20:00,
2013-09-13 08:30:00,63.6,63.6,28.07,SSW,206,0.0,3.0,100,0.00,CLR,,0.00,WeatherDisplay:10.37,2013-09-13 12:30:00,
2013-09-13 08:40:00,63.7,63.7,28.07,SSW,204,1.0,3.0,100,0.00,CLR,,0.00,WeatherDisplay:10.37,2013-09-13 12:40:00,
2013-09-13 08:50:00,63.9,63.9,28.07,SW,233,1.0,2.0,100,0.00,CLR,,0.00,WeatherDisplay:10.37,2013-09-13 12:50:00,
2013-09-13 09:00:00,64.4,64.4,28.07,WNW,299,1.0,2.0,100,0.00,CLR,,0.00,WeatherDisplay:10.37,2013-09-13 13:00:00,
2013-09-13 09:10:00,64.4,63.5,28.07,WNW,300,1.0,3.0,97,0.00,CLR,,0.00,WeatherDisplay:10.37,2013-09-13 13:10:00,
2013-09-13 09:20:00,65.3,63.8,28.07,WNW,291,1.0,3.0,95,0.00,CLR,,0.00,WeatherDisplay:10.37,2013-09-13 13:20:00,
2013-09-13 09:30:00,64.9,60.6,28.07,WNW,295,1.0,3.0,86,0.00,CLR,,0.00,WeatherDisplay:10.37,2013-09-13 13:30:00,
2013-09-13 09:40:00,66.3,61.3,28.07,NW,319,2.0,4.0,84,0.00,CLR,,0.00,WeatherDisplay:10.37,2013-09-13 13:40:00,
2013-09-13 09:50:00,66.7,58.9,28.07,WNW,296,2.0,2.0,76,0.00,CLR,,0.00,WeatherDisplay:10.37,2013-09-13 13:50:00,
2013-09-13 10:00:00,67.9,58.9,28.07,NW,320,1.0,3.0,73,0.00,CLR,,0.00,WeatherDisplay:10.37,2013-09-13 14:00:00,
2013-09-13 10:10:00,68.1,55.0,28.07,WNW,286,1.0,5.0,63,0.00,CLR,,0.00,WeatherDisplay:10.37,2013-09-13 14:10:00,
2013-09-13 10:20:00,66.9,53.9,28.07,WSW,256,2.0,5.0,63,0.00,CLR,,0.00,WeatherDisplay:10.37,2013-09-13 14:20:00,
2013-09-13 10:30:00,66.3,50.6,28.07,WNW,285,3.0,5.0,57,0.00,CLR,,0.00,WeatherDisplay:10.37,2013-09-13 14:30:00,
2013-09-13 10:40:00,67.5,51.7,28.07,WNW,285,2.0,5.0,57,0.00,CLR,,0.00,WeatherDisplay:10.37,2013-09-13 14:40:00,
2013-09-13 10:50:00,67.5,47.7,28.07,WNW,297,2.0,6.0,49,0.00,CLR,,0.00,WeatherDisplay:10.37,2013-09-13 14:50:00,
2013-09-13 11:00:00,68.5,48.1,28.07,NW,304,1.0,4.0,48,0.00,CLR,,0.00,WeatherDisplay:10.37,2013-09-13 15:00:00,
2013-09-13 11:10:00,69.0,46.2,28.07,West,281,2.0,6.0,44,0.00,CLR,,0.00,WeatherDisplay:10.37,2013-09-13 15:10:00,
2013-09-13 11:20:00,68.4,40.4,28.09,NW,305,3.0,7.0,36,0.00,CLR,,0.00,WeatherDisplay:10.37,2013-09-13 15:20:00,
2013-09-13 11:30:00,69.8,45.0,28.07,NW,323,2.0,5.0,41,0.00,CLR,,0.00,WeatherDisplay:10.37,2013-09-13 15:30:00,
2013-09-13 11:40:00,70.7,44.5,28.07,NNW,335,3.0,5.0,39,0.00,CLR,,0.00,WeatherDisplay:10.37,2013-09-13 15:40:00,
2013-09-13 11:50:00,70.2,42.7,28.09,NW,310,2.0,5.0,37,0.00,CLR,,0.00,WeatherDisplay:10.37,2013-09-13 15:50:00,
2013-09-13 12:00:00,71.3,42.2,28.09,NW,325,2.0,4.0,35,0.00,CLR,,0.00,WeatherDisplay:10.37,2013-09-13 16:00:00,
2013-09-13 12:10:00,71.1,40.5,28.09,NNW,344,2.0,5.0,33,0.00,CLR,,0.00,WeatherDisplay:10.37,2013-09-13 16:10:00,
2013-09-13 12:20:00,70.2,39.7,28.09,West,281,2.0,5.0,33,0.00,CLR,,0.00,WeatherDisplay:10.37,2013-09-13 16:20:00,
2013-09-13 12:30:00,70.9,40.3,28.09,NW,319,2.0,6.0,33,0.00,CLR,,0.00,WeatherDisplay:10.37,2013-09-13 16:30:00,
2013-09-13 12:40:00,71.2,40.6,28.09,NW,306,3.0,6.0,33,0.00,CLR,,0.00,WeatherDisplay:10.37,2013-09-13 16:40:00,
2013-09-13 12:50:00,70.0,39.5,28.09,West,280,2.0,6.0,33,0.00,CLR,,0.00,WeatherDisplay:10.37,2013-09-13 16:50:00,
2013-09-13 13:00:00,70.5,42.2,28.09,NW,326,2.0,6.0,36,0.00,CLR,,0.00,WeatherDisplay:10.37,2013-09-13 17:00:00,
2013-09-13 13:10:00,70.5,40.0,28.09,West,276,2.0,6.0,33,0.00,CLR,,0.00,WeatherDisplay:10.37,2013-09-13 17:10:00,
2013-09-13 13:20:00,71.1,41.3,28.09,WNW,287,2.0,5.0,34,0.00,CLR,,0.00,WeatherDisplay:10.37,2013-09-13 17:20:00,
2013-09-13 13:30:00,69.8,39.4,28.09,NW,321,2.0,5.0,33,0.00,CLR,,0.00,WeatherDisplay:10.37,2013-09-13 17:30:00,
2013-09-13 13:40:00,70.4,36.6,28.09,West,270,2.0,5.0,29,0.00,CLR,,0.00,WeatherDisplay:10.37,2013-09-13 17:40:00,
2013-09-13 13:50:00,70.9,36.1,28.09,WNW,288,2.0,6.0,28,0.00,CLR,,0.00,WeatherDisplay:10.37,2013-09-13 17:50:00,
2013-09-13 14:00:00,71.4,34.7,28.09,West,269,2.0,4.0,26,0.00,CLR,,0.00,WeatherDisplay:10.37,2013-09-13 18:00:00,
2013-09-13 14:10:00,72.5,35.6,28.09,NNW,330,2.0,6.0,26,0.00,CLR,,0.00,WeatherDisplay:10.37,2013-09-13 18:10:00,
2013-09-13 14:20:00,70.3,36.5,28.09,NNW,329,2.0,6.0,29,0.00,CLR,,0.00,WeatherDisplay:10.37,2013-09-13 18:20:00,
2013-09-13 14:30:00,70.7,33.1,28.12,WNW,285,2.0,5.0,25,0.00,CLR,,0.00,WeatherDisplay:10.37,2013-09-13 18:30:00,
2013-09-13 14:40:00,72.4,35.6,28.12,West,270,3.0,6.0,26,0.00,CLR,,0.00,WeatherDisplay:10.37,2013-09-13 18:40:00,
2013-09-13 14:50:00,72.0,34.2,28.09,WNW,303,2.0,6.0,25,0.00,CLR,,0.00,WeatherDisplay:10.37,2013-09-13 18:50:00,
2013-09-13 15:00:00,72.5,34.7,28.09,WNW,303,2.0,5.0,25,0.00,CLR,,0.00,WeatherDisplay:10.37,2013-09-13 19:00:00,
2013-09-13 15:10:00,72.1,33.3,28.09,WNW,301,3.0,6.0,24,0.00,CLR,,0.00,WeatherDisplay:10.37,2013-09-13 19:10:00,
2013-09-13 15:20:00,72.9,35.0,28.12,WNW,297,2.0,6.0,25,0.00,CLR,,0.00,WeatherDisplay:10.37,2013-09-13 19:20:00,
2013-09-13 15:30:00,73.9,33.7,28.12,NW,309,3.0,6.0,23,0.00,CLR,,0.00,WeatherDisplay:10.37,2013-09-13 19:30:00,
2013-09-13 15:40:00,74.1,33.9,28.12,WNW,296,2.0,6.0,23,0.00,CLR,,0.00,WeatherDisplay:10.37,2013-09-13 19:40:00,
2013-09-13 15:50:00,74.7,33.3,28.12,West,263,2.0,5.0,22,0.00,CLR,,0.00,WeatherDisplay:10.37,2013-09-13 19:50:00,
2013-09-13 16:00:00,73.3,32.1,28.12,NW,320,2.0,6.0,22,0.00,CLR,,0.00,WeatherDisplay:10.37,2013-09-13 20:00:00,
2013-09-13 16:10:00,73.3,33.3,28.12,NW,313,2.0,5.0,23,0.00,CLR,,0.00,WeatherDisplay:10.37,2013-09-13 20:10:00,
2013-09-13 16:20:00,71.2,31.5,28.12,WNW,292,1.0,5.0,23,0.00,CLR,,0.00,WeatherDisplay:10.37,2013-09-13 20:20:00,
2013-09-13 16:30:00,69.5,31.1,28.12,WNW,303,1.0,5.0,24,0.00,CLR,,0.00,WeatherDisplay:10.37,2013-09-13 20:30:00,
2013-09-13 16:40:00,72.1,35.3,28.12,NW,321,2.0,6.0,26,0.00,CLR,,0.00,WeatherDisplay:10.37,2013-09-13 20:40:00,
2013-09-13 16:50:00,73.2,32.1,28.12,WNW,290,2.0,6.0,22,0.00,CLR,,0.00,WeatherDisplay:10.37,2013-09-13 20:50:00,
2013-09-13 17:00:00,72.4,31.4,28.12,SW,232,2.0,4.0,22,0.00,CLR,,0.00,WeatherDisplay:10.37,2013-09-13 21:00:00,
2013-09-13 17:10:00,73.6,31.2,28.12,WNW,292,2.0,3.0,21,0.00,CLR,,0.00,WeatherDisplay:10.37,2013-09-13 21:10:00,
2013-09-13 17:20:00,73.5,32.3,28.15,WNW,286,2.0,4.0,22,0.00,CLR,,0.00,WeatherDisplay:10.37,2013-09-13 21:20:00,
2013-09-13 17:30:00,72.2,31.3,28.15,WNW,292,2.0,6.0,22,0.00,CLR,,0.00,WeatherDisplay:10.37,2013-09-13 21:30:00,
2013-09-13 17:40:00,73.0,31.9,28.15,West,265,1.0,4.0,22,0.00,CLR,,0.00,WeatherDisplay:10.37,2013-09-13 21:40:00,
2013-09-13 17:50:00,70.7,30.0,28.15,WNW,299,2.0,5.0,22,0.00,CLR,,0.00,WeatherDisplay:10.37,2013-09-13 21:50:00,
2013-09-13 18:00:00,70.1,31.6,28.15,NW,307,1.0,3.0,24,0.00,CLR,,0.00,WeatherDisplay:10.37,2013-09-13 22:00:00,
2013-09-13 18:10:00,71.2,32.6,28.15,West,272,1.0,5.0,24,0.00,CLR,,0.00,WeatherDisplay:10.37,2013-09-13 22:10:00,
2013-09-13 18:20:00,71.7,33.0,28.15,WNW,300,2.0,3.0,24,0.00,CLR,,0.00,WeatherDisplay:10.37,2013-09-13 22:20:00,
2013-09-13 18:30:00,70.3,32.8,28.15,West,268,2.0,5.0,25,0.00,CLR,,0.00,WeatherDisplay:10.37,2013-09-13 22:30:00,
2013-09-13 18:40:00,69.4,32.0,28.15,West,276,2.0,3.0,25,0.00,CLR,,0.00,WeatherDisplay:10.37,2013-09-13 22:40:00,
2013-09-13 18:50:00,69.4,33.0,28.12,NW,306,1.0,3.0,26,0.00,CLR,,0.00,WeatherDisplay:10.37,2013-09-13 22:50:00,
2013-09-13 19:00:00,68.9,34.4,28.12,WNW,300,2.0,3.0,28,0.00,CLR,,0.00,WeatherDisplay:10.37,2013-09-13 23:00:00,
2013-09-13 19:10:00,68.2,33.8,28.12,NW,304,2.0,3.0,28,0.00,CLR,,0.00,WeatherDisplay:10.37,2013-09-13 23:10:00,
2013-09-13 19:20:00,66.7,35.9,28.12,WNW,292,0.0,3.0,32,0.00,CLR,,0.00,WeatherDisplay:10.37,2013-09-13 23:20:00,
2013-09-13 19:30:00,65.0,36.0,28.12,NW,326,0.0,1.0,34,0.00,CLR,,0.00,WeatherDisplay:10.37,2013-09-13 23:30:00,
2013-09-13 19:40:00,63.8,35.6,28.12,NNW,338,0.0,1.0,35,0.00,CLR,,0.00,WeatherDisplay:10.37,2013-09-13 23:40:00,
2013-09-13 19:50:00,62.4,35.8,28.12,NNW,338,0.0,0.0,37,0.00,CLR,,0.00,WeatherDisplay:10.37,2013-09-13 23:50:00,
2013-09-13 20:00:00,61.6,37.0,28.12,NNW,346,0.0,0.0,40,0.00,CLR,,0.00,WeatherDisplay:10.37,2013-09-14 00:00:00,
2013-09-13 20:10:00,60.6,38.6,28.12,NNW,327,0.0,3.0,44,0.00,CLR,,0.00,WeatherDisplay:10.37,2013-09-14 00:10:00,
2013-09-13 20:20:00,60.6,38.6,28.12,North,353,2.0,3.0,44,0.00,CLR,,0.00,WeatherDisplay:10.37,2013-09-14 00:20:00,
2013-09-13 20:30:00,61.0,38.3,28.12,North,2,1.0,3.0,43,0.00,CLR,,0.00,WeatherDisplay:10.37,2013-09-14 00:30:00,
2013-09-13 20:40:00,60.8,38.7,28.12,NNW,343,1.0,3.0,44,0.00,CLR,,0.00,WeatherDisplay:10.37,2013-09-14 00:40:00,
2013-09-13 20:50:00,60.6,38.6,28.12,NNW,348,1.0,3.0,44,0.00,CLR,,0.00,WeatherDisplay:10.37,2013-09-14 00:50:00,
2013-09-13 21:00:00,60.4,38.3,28.12,NNW,333,2.0,6.0,44,0.00,CLR,,0.00,WeatherDisplay:10.37,2013-09-14 01:00:00,
2013-09-13 21:10:00,60.1,38.7,28.12,NNW,333,1.0,3.0,45,0.00,CLR,,0.00,WeatherDisplay:10.37,2013-09-14 01:10:00,
2013-09-13 21:20:00,59.7,38.9,28.12,NNW,331,1.0,3.0,46,0.00,CLR,,0.00,WeatherDisplay:10.37,2013-09-14 01:20:00,
2013-09-13 21:30:00,59.5,39.3,28.12,NW,322,2.0,4.0,47,0.00,CLR,,0.00,WeatherDisplay:10.37,2013-09-14 01:30:00,
2013-09-13 21:40:00,59.2,39.5,28.12,NNW,332,1.0,3.0,48,0.00,CLR,,0.00,WeatherDisplay:10.37,2013-09-14 01:40:00,
2013-09-13 21:50:00,59.0,39.9,28.15,NNW,335,2.0,5.0,49,0.00,CLR,,0.00,WeatherDisplay:10.37,2013-09-14 01:50:00,
2013-09-13 22:00:00,58.8,39.2,28.15,NNW,332,2.0,5.0,48,0.00,CLR,,0.00,WeatherDisplay:10.37,2013-09-14 02:00:00,
2013-09-13 22:10:00,58.5,39.4,28.15,NNW,334,2.0,5.0,49,0.00,CLR,,0.00,WeatherDisplay:10.37,2013-09-14 02:10:00,
2013-09-13 22:20:00,58.3,39.7,28.15,North,356,2.0,5.0,50,0.00,CLR,,0.00,WeatherDisplay:10.37,2013-09-14 02:20:00,
2013-09-13 22:30:00,58.1,39.5,28.15,North,355,1.0,3.0,50,0.00,CLR,,0.00,WeatherDisplay:10.37,2013-09-14 02:30:00,
2013-09-13 22:40:00,57.9,39.9,28.15,North,355,1.0,3.0,51,0.00,CLR,,0.00,WeatherDisplay:10.37,2013-09-14 02:40:00,
2013-09-13 22:50:00,57.6,39.6,28.15,North,2,1.0,3.0,51,0.00,CLR,,0.00,WeatherDisplay:10.37,2013-09-14 02:50:00,
2013-09-13 23:00:00,57.4,39.9,28.15,North,359,2.0,3.0,52,0.00,CLR,,0.00,WeatherDisplay:10.37,2013-09-14 03:00:00,
2013-09-13 23:10:00,57.0,40.0,28.15,NNE,17,1.0,3.0,53,0.00,CLR,,0.00,WeatherDisplay:10.37,2013-09-14 03:10:00,
2013-09-13 23:20:00,56.8,39.9,28.15,NNE,21,2.0,5.0,53,0.00,CLR,,0.00,WeatherDisplay:10.37,2013-09-14 03:20:00,
2013-09-13 23:30:00,56.3,39.9,28.15,NE,54,1.0,3.0,54,0.00,CLR,,0.00,WeatherDisplay:10.37,2013-09-14 03:30:00,
2013-09-13 23:40:00,55.9,40.0,28.15,NE,40,1.0,4.0,55,0.00,CLR,,0.00,WeatherDisplay:10.37,2013-09-14 03:40:00,
2013-09-13 23:50:00,55.8,39.8,28.15,NNE,33,1.0,5.0,55,0.00,CLR,,0.00,WeatherDisplay:10.37,2013-09-14 03:50:00,